sensor_id;sensor_type;location;lat;lon;timestamp;pressure;altitude;pressure_sealevel;temperature;humidity
79136;BME280;68533;51.090;17.216;2023-07-31T00:00:35;99793.28;;;15.63;90.77
79136;BME280;68533;51.090;17.216;2023-07-31T00:03:22;99800.78;;;15.63;91.12
79136;BME280;68533;51.090;17.216;2023-07-31T00:05:47;99801.59;;;15.63;90.55
79136;BME280;68533;51.090;17.216;2023-07-31T00:08:14;99793.75;;;15.65;90.24
79136;BME280;68533;51.090;17.216;2023-07-31T00:10:39;99793.59;;;15.70;89.95
79136;BME280;68533;51.090;17.216;2023-07-31T00:13:05;99800.56;;;15.76;89.78
79136;BME280;68533;51.090;17.216;2023-07-31T00:15:31;99807.78;;;15.69;89.83
79136;BME280;68533;51.090;17.216;2023-07-31T00:17:57;99797.81;;;15.68;89.78
79136;BME280;68533;51.090;17.216;2023-07-31T00:20:23;99801.91;;;15.70;89.44
79136;BME280;68533;51.090;17.216;2023-07-31T00:22:50;99801.53;;;15.72;89.03
79136;BME280;68533;51.090;17.216;2023-07-31T00:25:16;99810.03;;;15.75;89.18
79136;BME280;68533;51.090;17.216;2023-07-31T00:27:42;99803.34;;;15.76;89.28
79136;BME280;68533;51.090;17.216;2023-07-31T00:30:10;99806.97;;;15.68;89.60
79136;BME280;68533;51.090;17.216;2023-07-31T00:32:36;99813.94;;;15.74;89.02
79136;BME280;68533;51.090;17.216;2023-07-31T00:35:02;99809.34;;;15.78;88.66
79136;BME280;68533;51.090;17.216;2023-07-31T00:37:29;99815.75;;;15.70;89.32
79136;BME280;68533;51.090;17.216;2023-07-31T00:39:54;99812.50;;;15.68;89.51
79136;BME280;68533;51.090;17.216;2023-07-31T00:42:20;99812.00;;;15.66;90.09
79136;BME280;68533;51.090;17.216;2023-07-31T00:44:46;99812.69;;;15.63;90.17
79136;BME280;68533;51.090;17.216;2023-07-31T00:47:12;99816.78;;;15.57;90.95
79136;BME280;68533;51.090;17.216;2023-07-31T00:49:38;99807.19;;;15.55;91.67
79136;BME280;68533;51.090;17.216;2023-07-31T00:52:05;99809.94;;;15.63;90.17
79136;BME280;68533;51.090;17.216;2023-07-31T00:54:31;99809.03;;;15.71;89.77
79136;BME280;68533;51.090;17.216;2023-07-31T00:56:57;99797.81;;;15.68;88.80
79136;BME280;68533;51.090;17.216;2023-07-31T00:59:23;99803.50;;;15.71;88.71
79136;BME280;68533;51.090;17.216;2023-07-31T01:01:49;99805.00;;;15.69;88.60
79136;BME280;68533;51.090;17.216;2023-07-31T01:04:16;99804.31;;;15.72;88.69
79136;BME280;68533;51.090;17.216;2023-07-31T01:06:59;99789.72;;;15.63;88.31
79136;BME280;68533;51.090;17.216;2023-07-31T01:12:03;99789.22;;;15.61;87.77
79136;BME280;68533;51.090;17.216;2023-07-31T01:14:30;99795.38;;;15.66;87.06
79136;BME280;68533;51.090;17.216;2023-07-31T01:16:56;99792.63;;;15.66;87.27
79136;BME280;68533;51.090;17.216;2023-07-31T01:19:24;99796.41;;;15.62;87.45
79136;BME280;68533;51.090;17.216;2023-07-31T01:27:41;99788.59;;;15.55;86.67
79136;BME280;68533;51.090;17.216;2023-07-31T01:30:22;99794.47;;;15.53;86.26
79136;BME280;68533;51.090;17.216;2023-07-31T01:32:52;99802.47;;;15.55;85.89
79136;BME280;68533;51.090;17.216;2023-07-31T01:35:20;99794.16;;;15.55;85.77
79136;BME280;68533;51.090;17.216;2023-07-31T01:37:46;99800.63;;;15.59;86.05
79136;BME280;68533;51.090;17.216;2023-07-31T01:40:12;99799.81;;;15.59;85.81
79136;BME280;68533;51.090;17.216;2023-07-31T01:42:38;99802.91;;;15.57;85.54
79136;BME280;68533;51.090;17.216;2023-07-31T01:45:05;99808.00;;;15.55;86.13
79136;BME280;68533;51.090;17.216;2023-07-31T01:47:31;99811.25;;;15.48;86.50
79136;BME280;68533;51.090;17.216;2023-07-31T01:49:57;99809.63;;;15.47;86.60
79136;BME280;68533;51.090;17.216;2023-07-31T01:52:23;99804.41;;;15.46;86.51
79136;BME280;68533;51.090;17.216;2023-07-31T01:54:49;99799.53;;;15.43;86.69
79136;BME280;68533;51.090;17.216;2023-07-31T01:57:15;99792.69;;;15.40;86.10
79136;BME280;68533;51.090;17.216;2023-07-31T01:59:41;99801.63;;;15.46;86.09
79136;BME280;68533;51.090;17.216;2023-07-31T02:02:07;99796.91;;;15.46;85.74
79136;BME280;68533;51.090;17.216;2023-07-31T02:04:32;99803.28;;;15.47;85.48
79136;BME280;68533;51.090;17.216;2023-07-31T02:07:00;99806.38;;;15.45;85.52
79136;BME280;68533;51.090;17.216;2023-07-31T02:09:25;99804.22;;;15.51;85.37
79136;BME280;68533;51.090;17.216;2023-07-31T02:11:52;99803.28;;;15.47;85.62
79136;BME280;68533;51.090;17.216;2023-07-31T02:14:18;99802.59;;;15.50;84.44
79136;BME280;68533;51.090;17.216;2023-07-31T02:16:44;99799.69;;;15.55;84.51
79136;BME280;68533;51.090;17.216;2023-07-31T02:19:10;99794.16;;;15.55;84.24
79136;BME280;68533;51.090;17.216;2023-07-31T02:21:36;99795.09;;;15.50;84.30
79136;BME280;68533;51.090;17.216;2023-07-31T02:24:02;99799.19;;;15.53;84.64
79136;BME280;68533;51.090;17.216;2023-07-31T02:26:28;99801.78;;;15.49;84.65
79136;BME280;68533;51.090;17.216;2023-07-31T02:28:54;99805.72;;;15.48;84.84
79136;BME280;68533;51.090;17.216;2023-07-31T02:31:20;99802.78;;;15.45;84.71
79136;BME280;68533;51.090;17.216;2023-07-31T02:33:46;99805.56;;;15.45;84.61
79136;BME280;68533;51.090;17.216;2023-07-31T02:36:12;99798.38;;;15.44;85.02
79136;BME280;68533;51.090;17.216;2023-07-31T02:38:38;99808.84;;;15.38;85.49
79136;BME280;68533;51.090;17.216;2023-07-31T02:41:04;99806.88;;;15.39;85.01
79136;BME280;68533;51.090;17.216;2023-07-31T02:43:30;99799.72;;;15.38;84.74
79136;BME280;68533;51.090;17.216;2023-07-31T02:45:56;99792.69;;;15.40;84.41
79136;BME280;68533;51.090;17.216;2023-07-31T02:48:22;99794.97;;;15.38;85.08
79136;BME280;68533;51.090;17.216;2023-07-31T02:50:49;99800.66;;;15.42;84.52
79136;BME280;68533;51.090;17.216;2023-07-31T02:53:15;99808.50;;;15.40;84.92
79136;BME280;68533;51.090;17.216;2023-07-31T02:55:41;99808.00;;;15.38;84.64
79136;BME280;68533;51.090;17.216;2023-07-31T02:58:07;99808.50;;;15.40;84.57
79136;BME280;68533;51.090;17.216;2023-07-31T03:00:33;99803.59;;;15.45;83.81
79136;BME280;68533;51.090;17.216;2023-07-31T03:02:59;99809.66;;;15.39;84.35
79136;BME280;68533;51.090;17.216;2023-07-31T03:05:25;99807.19;;;15.46;83.88
79136;BME280;68533;51.090;17.216;2023-07-31T03:07:51;99818.09;;;15.42;84.23
79136;BME280;68533;51.090;17.216;2023-07-31T03:10:17;99810.13;;;15.41;84.31
79136;BME280;68533;51.090;17.216;2023-07-31T03:12:47;99817.44;;;15.45;83.56
79136;BME280;68533;51.090;17.216;2023-07-31T03:15:14;99810.16;;;15.32;84.40
79136;BME280;68533;51.090;17.216;2023-07-31T03:17:40;99812.75;;;15.29;84.55
79136;BME280;68533;51.090;17.216;2023-07-31T03:20:06;99803.31;;;15.30;84.21
79136;BME280;68533;51.090;17.216;2023-07-31T03:22:32;99817.66;;;15.23;84.61
79136;BME280;68533;51.090;17.216;2023-07-31T03:24:58;99815.72;;;15.24;83.82
79136;BME280;68533;51.090;17.216;2023-07-31T03:27:24;99815.72;;;15.15;84.37
79136;BME280;68533;51.090;17.216;2023-07-31T03:29:52;99821.97;;;15.03;85.31
79136;BME280;68533;51.090;17.216;2023-07-31T03:32:18;99822.78;;;14.95;85.56
79136;BME280;68533;51.090;17.216;2023-07-31T03:34:44;99825.69;;;14.99;85.08
79136;BME280;68533;51.090;17.216;2023-07-31T03:37:10;99815.13;;;15.01;84.50
79136;BME280;68533;51.090;17.216;2023-07-31T03:39:36;99814.63;;;14.99;84.59
79136;BME280;68533;51.090;17.216;2023-07-31T03:42:02;99815.78;;;14.89;85.34
79136;BME280;68533;51.090;17.216;2023-07-31T03:44:29;99812.03;;;14.85;86.20
79136;BME280;68533;51.090;17.216;2023-07-31T03:46:54;99817.44;;;14.82;85.84
79136;BME280;68533;51.090;17.216;2023-07-31T03:49:21;99809.09;;;14.90;85.55
79136;BME280;68533;51.090;17.216;2023-07-31T03:51:47;99807.00;;;14.79;86.32
79136;BME280;68533;51.090;17.216;2023-07-31T03:54:13;99819.06;;;14.74;86.91
79136;BME280;68533;51.090;17.216;2023-07-31T03:56:39;99813.66;;;14.69;86.54
79136;BME280;68533;51.090;17.216;2023-07-31T03:59:06;99819.38;;;14.64;86.93
79136;BME280;68533;51.090;17.216;2023-07-31T04:01:33;99814.97;;;14.63;87.23
79136;BME280;68533;51.090;17.216;2023-07-31T04:04:00;99808.16;;;14.52;88.03
79136;BME280;68533;51.090;17.216;2023-07-31T04:06:28;99811.06;;;14.47;88.00
79136;BME280;68533;51.090;17.216;2023-07-31T04:08:54;99820.50;;;14.46;88.37
79136;BME280;68533;51.090;17.216;2023-07-31T04:11:20;99810.72;;;14.40;88.30
79136;BME280;68533;51.090;17.216;2023-07-31T04:13:46;99813.19;;;14.41;87.71
79136;BME280;68533;51.090;17.216;2023-07-31T04:16:12;99816.91;;;14.45;87.33
79136;BME280;68533;51.090;17.216;2023-07-31T04:18:38;99817.72;;;14.46;87.47
79136;BME280;68533;51.090;17.216;2023-07-31T04:21:04;99807.66;;;14.58;86.64
79136;BME280;68533;51.090;17.216;2023-07-31T04:23:30;99809.13;;;14.56;86.79
79136;BME280;68533;51.090;17.216;2023-07-31T04:25:56;99809.28;;;14.59;86.86
79136;BME280;68533;51.090;17.216;2023-07-31T04:28:22;99810.75;;;14.57;87.02
79136;BME280;68533;51.090;17.216;2023-07-31T04:30:48;99805.03;;;14.62;87.65
79136;BME280;68533;51.090;17.216;2023-07-31T04:33:14;99815.16;;;14.58;88.38
79136;BME280;68533;51.090;17.216;2023-07-31T04:35:40;99814.47;;;14.61;87.28
79136;BME280;68533;51.090;17.216;2023-07-31T04:38:06;99818.88;;;14.79;86.70
79136;BME280;68533;51.090;17.216;2023-07-31T04:40:32;99826.31;;;15.04;85.78
79136;BME280;68533;51.090;17.216;2023-07-31T04:42:58;99811.66;;;15.12;84.62
79136;BME280;68533;51.090;17.216;2023-07-31T04:45:26;99812.13;;;15.32;85.47
79136;BME280;68533;51.090;17.216;2023-07-31T04:47:53;99816.13;;;15.43;84.01
79136;BME280;68533;51.090;17.216;2023-07-31T04:50:18;99818.88;;;15.69;83.29
79136;BME280;68533;51.090;17.216;2023-07-31T04:52:44;99810.59;;;15.89;82.45
79136;BME280;68533;51.090;17.216;2023-07-31T04:55:12;99810.22;;;15.70;82.63
79136;BME280;68533;51.090;17.216;2023-07-31T04:57:38;99810.38;;;15.65;82.89
79136;BME280;68533;51.090;17.216;2023-07-31T05:00:05;99815.94;;;15.65;82.98
79136;BME280;68533;51.090;17.216;2023-07-31T05:02:31;99807.34;;;15.87;82.26
79136;BME280;68533;51.090;17.216;2023-07-31T05:04:57;99811.41;;;15.90;82.41
79136;BME280;68533;51.090;17.216;2023-07-31T05:07:23;99805.06;;;15.89;82.31
79136;BME280;68533;51.090;17.216;2023-07-31T05:09:49;99809.78;;;15.89;81.56
79136;BME280;68533;51.090;17.216;2023-07-31T05:12:15;99807.63;;;15.95;81.84
79136;BME280;68533;51.090;17.216;2023-07-31T05:14:41;99810.31;;;16.12;81.22
79136;BME280;68533;51.090;17.216;2023-07-31T05:17:07;99815.75;;;16.29;81.24
79136;BME280;68533;51.090;17.216;2023-07-31T05:19:33;99818.59;;;16.41;80.04
79136;BME280;68533;51.090;17.216;2023-07-31T05:22:00;99816.28;;;16.73;78.67
79136;BME280;68533;51.090;17.216;2023-07-31T05:24:25;99822.88;;;17.01;77.12
79136;BME280;68533;51.090;17.216;2023-07-31T05:26:52;99826.88;;;17.24;77.11
79136;BME280;68533;51.090;17.216;2023-07-31T05:29:18;99829.25;;;17.46;76.28
79136;BME280;68533;51.090;17.216;2023-07-31T05:31:44;99827.75;;;17.49;75.74
79136;BME280;68533;51.090;17.216;2023-07-31T05:34:10;99818.91;;;17.80;73.55
79136;BME280;68533;51.090;17.216;2023-07-31T05:36:36;99832.13;;;17.83;74.70
79136;BME280;68533;51.090;17.216;2023-07-31T05:39:02;99832.56;;;17.73;72.51
79136;BME280;68533;51.090;17.216;2023-07-31T05:41:32;99822.03;;;17.78;73.31
79136;BME280;68533;51.090;17.216;2023-07-31T05:43:58;99826.31;;;17.88;71.48
79136;BME280;68533;51.090;17.216;2023-07-31T05:46:24;99818.69;;;18.21;72.92
79136;BME280;68533;51.090;17.216;2023-07-31T05:48:51;99817.41;;;18.19;70.02
79136;BME280;68533;51.090;17.216;2023-07-31T05:51:18;99817.16;;;18.12;70.15
79136;BME280;68533;51.090;17.216;2023-07-31T05:53:44;99822.13;;;18.31;72.11
79136;BME280;68533;51.090;17.216;2023-07-31T05:56:10;99827.00;;;18.34;71.37
79136;BME280;68533;51.090;17.216;2023-07-31T05:58:37;99815.44;;;18.07;70.79
79136;BME280;68533;51.090;17.216;2023-07-31T06:01:03;99822.97;;;18.07;70.48
79136;BME280;68533;51.090;17.216;2023-07-31T06:03:28;99823.78;;;18.19;71.27
79136;BME280;68533;51.090;17.216;2023-07-31T06:05:55;99828.97;;;18.57;70.72
79136;BME280;68533;51.090;17.216;2023-07-31T06:08:20;99821.84;;;18.60;69.17
79136;BME280;68533;51.090;17.216;2023-07-31T06:10:47;99815.81;;;18.46;69.08
79136;BME280;68533;51.090;17.216;2023-07-31T06:13:12;99824.75;;;18.64;69.63
79136;BME280;68533;51.090;17.216;2023-07-31T06:15:39;99821.59;;;18.77;68.45
79136;BME280;68533;51.090;17.216;2023-07-31T06:18:04;99824.97;;;18.98;68.32
79136;BME280;68533;51.090;17.216;2023-07-31T06:20:36;99821.59;;;18.77;67.75
79136;BME280;68533;51.090;17.216;2023-07-31T06:23:02;99820.75;;;18.89;67.63
79136;BME280;68533;51.090;17.216;2023-07-31T06:25:29;99821.16;;;18.63;66.59
79136;BME280;68533;51.090;17.216;2023-07-31T06:27:56;99823.38;;;18.45;68.32
79136;BME280;68533;51.090;17.216;2023-07-31T06:30:22;99809.56;;;18.49;69.67
79136;BME280;68533;51.090;17.216;2023-07-31T06:32:48;99815.63;;;18.39;68.09
79136;BME280;68533;51.090;17.216;2023-07-31T06:35:14;99816.50;;;18.55;68.29
79136;BME280;68533;51.090;17.216;2023-07-31T06:37:40;99806.53;;;18.54;66.96
79136;BME280;68533;51.090;17.216;2023-07-31T06:40:09;99805.16;;;18.48;68.00
79136;BME280;68533;51.090;17.216;2023-07-31T06:42:37;99810.72;;;18.48;66.39
79136;BME280;68533;51.090;17.216;2023-07-31T06:45:05;99804.47;;;18.63;68.26
79136;BME280;68533;51.090;17.216;2023-07-31T06:47:31;99809.28;;;18.78;67.20
79136;BME280;68533;51.090;17.216;2023-07-31T06:49:59;99808.19;;;18.67;68.05
79136;BME280;68533;51.090;17.216;2023-07-31T06:52:25;99815.00;;;18.97;68.40
79136;BME280;68533;51.090;17.216;2023-07-31T06:55:16;99817.03;;;19.13;67.20
79136;BME280;68533;51.090;17.216;2023-07-31T06:57:44;99813.00;;;19.10;67.66
79136;BME280;68533;51.090;17.216;2023-07-31T07:00:11;99826.88;;;19.38;65.86
79136;BME280;68533;51.090;17.216;2023-07-31T07:02:37;99820.47;;;19.81;65.33
79136;BME280;68533;51.090;17.216;2023-07-31T07:05:06;99817.03;;;20.03;65.69
79136;BME280;68533;51.090;17.216;2023-07-31T07:07:32;99815.34;;;19.83;65.08
79136;BME280;68533;51.090;17.216;2023-07-31T07:09:59;99812.19;;;19.69;64.68
79136;BME280;68533;51.090;17.216;2023-07-31T07:12:31;99803.28;;;19.20;64.67
79136;BME280;68533;51.090;17.216;2023-07-31T07:15:02;99817.06;;;19.28;65.15
79136;BME280;68533;51.090;17.216;2023-07-31T07:17:29;99813.28;;;19.21;65.48
79136;BME280;68533;51.090;17.216;2023-07-31T07:19:59;99812.69;;;18.99;66.49
79136;BME280;68533;51.090;17.216;2023-07-31T07:22:25;99808.84;;;19.20;66.13
79136;BME280;68533;51.090;17.216;2023-07-31T07:24:53;99803.81;;;19.10;67.45
79136;BME280;68533;51.090;17.216;2023-07-31T07:27:22;99799.25;;;19.17;65.39
79136;BME280;68533;51.090;17.216;2023-07-31T07:29:50;99790.88;;;19.17;66.48
79136;BME280;68533;51.090;17.216;2023-07-31T07:32:17;99793.06;;;19.24;66.98
79136;BME280;68533;51.090;17.216;2023-07-31T07:34:48;99793.31;;;19.34;67.07
79136;BME280;68533;51.090;17.216;2023-07-31T07:37:15;99797.03;;;19.38;64.99
79136;BME280;68533;51.090;17.216;2023-07-31T07:39:42;99790.13;;;19.64;65.51
79136;BME280;68533;51.090;17.216;2023-07-31T07:42:08;99791.81;;;19.37;65.80
79136;BME280;68533;51.090;17.216;2023-07-31T07:44:34;99782.69;;;19.52;65.85
79136;BME280;68533;51.090;17.216;2023-07-31T07:47:03;99782.97;;;19.47;66.27
79136;BME280;68533;51.090;17.216;2023-07-31T07:49:35;99781.06;;;19.67;65.43
79136;BME280;68533;51.090;17.216;2023-07-31T07:52:01;99776.78;;;19.42;65.58
79136;BME280;68533;51.090;17.216;2023-07-31T07:54:28;99784.66;;;19.67;66.23
79136;BME280;68533;51.090;17.216;2023-07-31T07:56:54;99782.69;;;19.68;64.34
79136;BME280;68533;51.090;17.216;2023-07-31T07:59:20;99788.91;;;20.43;63.30
79136;BME280;68533;51.090;17.216;2023-07-31T08:01:46;99783.63;;;20.58;64.09
79136;BME280;68533;51.090;17.216;2023-07-31T08:04:12;99773.81;;;20.48;61.85
79136;BME280;68533;51.090;17.216;2023-07-31T08:06:38;99778.59;;;20.47;63.43
79136;BME280;68533;51.090;17.216;2023-07-31T08:09:04;99782.13;;;21.02;62.36
79136;BME280;68533;51.090;17.216;2023-07-31T08:11:35;99781.41;;;21.47;60.15
79136;BME280;68533;51.090;17.216;2023-07-31T08:14:01;99778.91;;;21.65;58.31
79136;BME280;68533;51.090;17.216;2023-07-31T08:16:27;99772.47;;;22.10;55.50
79136;BME280;68533;51.090;17.216;2023-07-31T08:18:54;99777.91;;;22.82;57.35
79136;BME280;68533;51.090;17.216;2023-07-31T08:21:21;99769.63;;;22.33;56.94
79136;BME280;68533;51.090;17.216;2023-07-31T08:23:47;99765.53;;;22.27;55.81
79136;BME280;68533;51.090;17.216;2023-07-31T08:26:17;99774.47;;;22.10;56.07
79136;BME280;68533;51.090;17.216;2023-07-31T08:28:44;99778.78;;;22.30;55.99
79136;BME280;68533;51.090;17.216;2023-07-31T08:31:10;99780.63;;;23.89;50.61
79136;BME280;68533;51.090;17.216;2023-07-31T08:33:37;99786.94;;;24.27;50.87
79136;BME280;68533;51.090;17.216;2023-07-31T08:36:04;99792.69;;;23.49;52.90
79136;BME280;68533;51.090;17.216;2023-07-31T08:38:30;99789.03;;;23.86;51.88
79136;BME280;68533;51.090;17.216;2023-07-31T08:40:57;99792.47;;;23.69;50.96
79136;BME280;68533;51.090;17.216;2023-07-31T08:43:27;99783.56;;;23.22;50.04
79136;BME280;68533;51.090;17.216;2023-07-31T08:45:54;99778.91;;;23.00;50.31
79136;BME280;68533;51.090;17.216;2023-07-31T08:48:23;99785.63;;;22.92;53.34
79136;BME280;68533;51.090;17.216;2023-07-31T08:50:51;99780.97;;;22.43;51.13
79136;BME280;68533;51.090;17.216;2023-07-31T08:53:19;99772.06;;;21.85;53.46
79136;BME280;68533;51.090;17.216;2023-07-31T08:55:46;99775.03;;;21.96;53.68
79136;BME280;68533;51.090;17.216;2023-07-31T08:58:14;99771.03;;;21.71;57.03
79136;BME280;68533;51.090;17.216;2023-07-31T09:00:42;99775.41;;;21.94;56.87
79136;BME280;68533;51.090;17.216;2023-07-31T09:03:17;99763.13;;;21.30;55.74
79136;BME280;68533;51.090;17.216;2023-07-31T09:05:45;99773.19;;;21.35;58.51
79136;BME280;68533;51.090;17.216;2023-07-31T09:08:13;99771.78;;;21.03;56.38
79136;BME280;68533;51.090;17.216;2023-07-31T09:10:43;99764.72;;;20.70;55.92
79136;BME280;68533;51.090;17.216;2023-07-31T09:13:14;99768.31;;;20.51;56.27
79136;BME280;68533;51.090;17.216;2023-07-31T09:15:40;99777.19;;;20.38;57.34
79136;BME280;68533;51.090;17.216;2023-07-31T09:18:07;99778.03;;;20.23;58.36
79136;BME280;68533;51.090;17.216;2023-07-31T09:20:34;99778.91;;;20.42;60.61
79136;BME280;68533;51.090;17.216;2023-07-31T09:23:11;99779.78;;;20.31;58.88
79136;BME280;68533;51.090;17.216;2023-07-31T09:25:38;99772.97;;;20.28;58.46
79136;BME280;68533;51.090;17.216;2023-07-31T09:28:07;99766.19;;;20.83;59.12
79136;BME280;68533;51.090;17.216;2023-07-31T09:30:51;99771.63;;;20.76;60.14
79136;BME280;68533;51.090;17.216;2023-07-31T09:33:18;99772.66;;;20.87;61.42
79136;BME280;68533;51.090;17.216;2023-07-31T09:35:44;99769.59;;;20.73;59.89
79136;BME280;68533;51.090;17.216;2023-07-31T09:38:14;99776.84;;;20.78;59.84
79136;BME280;68533;51.090;17.216;2023-07-31T09:40:44;99777.97;;;20.73;58.89
79136;BME280;68533;51.090;17.216;2023-07-31T09:43:12;99780.38;;;20.56;59.49
79136;BME280;68533;51.090;17.216;2023-07-31T09:45:40;99785.75;;;20.29;59.01
79136;BME280;68533;51.090;17.216;2023-07-31T09:48:26;99792.00;;;20.07;60.64
79136;BME280;68533;51.090;17.216;2023-07-31T09:50:53;99789.94;;;20.04;63.59
79136;BME280;68533;51.090;17.216;2023-07-31T09:53:28;99791.59;;;19.73;62.12
79136;BME280;68533;51.090;17.216;2023-07-31T09:55:58;99801.97;;;19.45;60.33
79136;BME280;68533;51.090;17.216;2023-07-31T09:58:26;99793.38;;;19.50;61.58
79136;BME280;68533;51.090;17.216;2023-07-31T10:00:55;99798.25;;;19.53;61.52
79136;BME280;68533;51.090;17.216;2023-07-31T10:03:24;99793.13;;;19.71;59.85
79136;BME280;68533;51.090;17.216;2023-07-31T10:05:50;99796.28;;;19.69;60.15
79136;BME280;68533;51.090;17.216;2023-07-31T10:08:20;99789.16;;;19.72;59.62
79136;BME280;68533;51.090;17.216;2023-07-31T10:10:47;99783.69;;;19.75;59.62
79136;BME280;68533;51.090;17.216;2023-07-31T10:13:14;99782.41;;;19.89;59.72
79136;BME280;68533;51.090;17.216;2023-07-31T10:15:40;99785.00;;;19.82;59.56
79136;BME280;68533;51.090;17.216;2023-07-31T10:18:09;99778.28;;;19.83;60.85
79136;BME280;68533;51.090;17.216;2023-07-31T10:20:36;99774.56;;;19.94;60.99
79136;BME280;68533;51.090;17.216;2023-07-31T10:23:02;99771.22;;;19.89;61.80
79136;BME280;68533;51.090;17.216;2023-07-31T10:25:29;99767.03;;;19.63;62.31
79136;BME280;68533;51.090;17.216;2023-07-31T10:27:57;99776.00;;;19.57;63.56
79136;BME280;68533;51.090;17.216;2023-07-31T10:30:28;99777.91;;;19.68;64.42
79136;BME280;68533;51.090;17.216;2023-07-31T10:32:56;99771.97;;;19.86;63.05
79136;BME280;68533;51.090;17.216;2023-07-31T10:35:23;99773.03;;;19.97;62.70
79136;BME280;68533;51.090;17.216;2023-07-31T10:37:49;99772.72;;;20.17;61.90
79136;BME280;68533;51.090;17.216;2023-07-31T10:40:28;99766.25;;;20.48;60.37
79136;BME280;68533;51.090;17.216;2023-07-31T10:42:56;99767.44;;;20.86;60.42
79136;BME280;68533;51.090;17.216;2023-07-31T10:45:33;99764.50;;;20.60;59.86
79136;BME280;68533;51.090;17.216;2023-07-31T10:50:32;99760.81;;;20.94;59.33
79136;BME280;68533;51.090;17.216;2023-07-31T10:52:59;99755.59;;;20.92;58.80
79136;BME280;68533;51.090;17.216;2023-07-31T10:55:40;99757.44;;;20.66;60.15
79136;BME280;68533;51.090;17.216;2023-07-31T10:58:08;99761.34;;;20.80;60.53
79136;BME280;68533;51.090;17.216;2023-07-31T11:00:37;99753.75;;;20.42;59.50
79136;BME280;68533;51.090;17.216;2023-07-31T11:03:04;99741.09;;;20.29;60.17
79136;BME280;68533;51.090;17.216;2023-07-31T11:05:50;99743.31;;;20.39;60.22
79136;BME280;68533;51.090;17.216;2023-07-31T11:08:30;99749.66;;;20.56;59.38
79136;BME280;68533;51.090;17.216;2023-07-31T11:11:06;99744.56;;;20.61;59.00
79136;BME280;68533;51.090;17.216;2023-07-31T11:13:40;99749.53;;;21.10;58.73
79136;BME280;68533;51.090;17.216;2023-07-31T11:16:06;99745.34;;;21.19;55.86
79136;BME280;68533;51.090;17.216;2023-07-31T11:18:33;99741.50;;;21.27;57.11
79136;BME280;68533;51.090;17.216;2023-07-31T11:20:59;99733.28;;;21.61;56.18
79136;BME280;68533;51.090;17.216;2023-07-31T11:23:25;99742.81;;;22.05;56.05
79136;BME280;68533;51.090;17.216;2023-07-31T11:25:51;99732.72;;;22.01;54.53
79136;BME280;68533;51.090;17.216;2023-07-31T11:28:18;99730.47;;;22.10;55.84
79136;BME280;68533;51.090;17.216;2023-07-31T11:30:46;99724.00;;;21.80;56.67
79136;BME280;68533;51.090;17.216;2023-07-31T11:33:13;99727.53;;;21.99;56.05
79136;BME280;68533;51.090;17.216;2023-07-31T11:35:47;99723.84;;;21.95;56.04
79136;BME280;68533;51.090;17.216;2023-07-31T11:38:22;99723.38;;;21.41;56.86
79136;BME280;68533;51.090;17.216;2023-07-31T11:40:50;99710.81;;;21.54;56.04
79136;BME280;68533;51.090;17.216;2023-07-31T11:43:17;99716.41;;;22.33;55.06
79136;BME280;68533;51.090;17.216;2023-07-31T11:45:52;99706.53;;;22.13;55.04
79136;BME280;68533;51.090;17.216;2023-07-31T11:50:57;99697.34;;;22.45;53.45
79136;BME280;68533;51.090;17.216;2023-07-31T11:53:56;99688.47;;;23.07;51.66
79136;BME280;68533;51.090;17.216;2023-07-31T11:56:21;99691.25;;;23.03;52.34
79136;BME280;68533;51.090;17.216;2023-07-31T11:58:57;99697.91;;;22.58;53.13
79136;BME280;68533;51.090;17.216;2023-07-31T12:01:24;99692.75;;;22.94;52.93
79136;BME280;68533;51.090;17.216;2023-07-31T12:03:53;99686.31;;;22.90;52.13
79136;BME280;68533;51.090;17.216;2023-07-31T12:06:20;99682.03;;;23.47;50.70
79136;BME280;68533;51.090;17.216;2023-07-31T12:08:47;99678.28;;;24.56;49.21
79136;BME280;68533;51.090;17.216;2023-07-31T12:11:14;99678.44;;;24.91;47.82
79136;BME280;68533;51.090;17.216;2023-07-31T12:13:41;99674.69;;;24.52;47.02
79136;BME280;68533;51.090;17.216;2023-07-31T12:16:06;99664.69;;;24.75;47.30
79136;BME280;68533;51.090;17.216;2023-07-31T12:18:35;99661.81;;;24.47;47.98
79136;BME280;68533;51.090;17.216;2023-07-31T12:21:04;99666.69;;;23.37;49.04
79136;BME280;68533;51.090;17.216;2023-07-31T12:23:33;99662.13;;;23.63;49.52
79136;BME280;68533;51.090;17.216;2023-07-31T12:26:17;99654.53;;;22.78;50.20
79136;BME280;68533;51.090;17.216;2023-07-31T12:28:48;99652.38;;;23.05;50.99
79136;BME280;68533;51.090;17.216;2023-07-31T12:31:20;99648.16;;;22.81;50.98
79136;BME280;68533;51.090;17.216;2023-07-31T12:33:51;99646.88;;;22.75;52.44
79136;BME280;68533;51.090;17.216;2023-07-31T12:36:20;99635.84;;;23.37;50.00
79136;BME280;68533;51.090;17.216;2023-07-31T12:38:46;99634.50;;;23.72;48.63
79136;BME280;68533;51.090;17.216;2023-07-31T12:41:13;99622.00;;;23.58;50.27
79136;BME280;68533;51.090;17.216;2023-07-31T12:43:41;99626.66;;;24.02;49.79
79136;BME280;68533;51.090;17.216;2023-07-31T12:46:08;99622.03;;;23.62;49.24
79136;BME280;68533;51.090;17.216;2023-07-31T12:48:37;99607.06;;;24.16;48.99
79136;BME280;68533;51.090;17.216;2023-07-31T12:51:04;99620.50;;;23.79;49.87
79136;BME280;68533;51.090;17.216;2023-07-31T12:53:30;99612.22;;;24.04;48.86
79136;BME280;68533;51.090;17.216;2023-07-31T12:55:56;99614.59;;;23.36;49.56
79136;BME280;68533;51.090;17.216;2023-07-31T12:58:23;99626.06;;;22.76;52.75
79136;BME280;68533;51.090;17.216;2023-07-31T13:00:49;99613.28;;;22.42;52.88
79136;BME280;68533;51.090;17.216;2023-07-31T13:03:15;99610.97;;;22.51;53.03
79136;BME280;68533;51.090;17.216;2023-07-31T13:05:42;99607.75;;;23.30;52.41